sensor_id;sensor_type;location;lat;lon;timestamp;temperature;humidity
82231;DHT22;71832;45.138;9.816;2023-12-20T00:01:48;3.10;98.00
82231;DHT22;71832;45.138;9.816;2023-12-20T00:04:16;3.10;98.10
82231;DHT22;71832;45.138;9.816;2023-12-20T00:06:43;3.10;97.30
82231;DHT22;71832;45.138;9.816;2023-12-20T00:09:11;3.10;96.60
82231;DHT22;71832;45.138;9.816;2023-12-20T00:11:39;3.10;96.20
82231;DHT22;71832;45.138;9.816;2023-12-20T00:14:09;3.00;96.10
82231;DHT22;71832;45.138;9.816;2023-12-20T00:16:37;3.00;96.10
82231;DHT22;71832;45.138;9.816;2023-12-20T00:19:05;3.00;96.50
82231;DHT22;71832;45.138;9.816;2023-12-20T00:21:34;3.00;96.20
82231;DHT22;71832;45.138;9.816;2023-12-20T00:24:03;3.00;95.90
82231;DHT22;71832;45.138;9.816;2023-12-20T00:26:32;2.90;95.80
82231;DHT22;71832;45.138;9.816;2023-12-20T00:29:01;2.90;96.70
82231;DHT22;71832;45.138;9.816;2023-12-20T00:31:30;2.90;97.50
82231;DHT22;71832;45.138;9.816;2023-12-20T00:33:59;2.90;97.60
82231;DHT22;71832;45.138;9.816;2023-12-20T00:36:28;2.80;97.20
82231;DHT22;71832;45.138;9.816;2023-12-20T00:38:56;2.80;97.50
82231;DHT22;71832;45.138;9.816;2023-12-20T00:41:25;2.80;97.60
82231;DHT22;71832;45.138;9.816;2023-12-20T00:43:54;2.80;98.50
82231;DHT22;71832;45.138;9.816;2023-12-20T00:46:22;2.80;98.00
82231;DHT22;71832;45.138;9.816;2023-12-20T00:48:51;2.80;97.50
82231;DHT22;71832;45.138;9.816;2023-12-20T00:51:20;2.70;97.90
82231;DHT22;71832;45.138;9.816;2023-12-20T00:53:50;2.70;98.30
82231;DHT22;71832;45.138;9.816;2023-12-20T00:56:21;2.70;99.20
82231;DHT22;71832;45.138;9.816;2023-12-20T00:58:49;2.80;99.30
82231;DHT22;71832;45.138;9.816;2023-12-20T01:01:18;2.80;99.20
82231;DHT22;71832;45.138;9.816;2023-12-20T01:03:47;2.90;99.30
82231;DHT22;71832;45.138;9.816;2023-12-20T01:06:18;2.80;96.50
82231;DHT22;71832;45.138;9.816;2023-12-20T01:08:47;2.70;95.10
82231;DHT22;71832;45.138;9.816;2023-12-20T01:11:15;2.60;95.40
82231;DHT22;71832;45.138;9.816;2023-12-20T01:13:43;2.60;96.10
82231;DHT22;71832;45.138;9.816;2023-12-20T01:16:12;2.60;97.30
82231;DHT22;71832;45.138;9.816;2023-12-20T01:18:40;2.70;98.00
82231;DHT22;71832;45.138;9.816;2023-12-20T01:21:09;2.70;98.50
82231;DHT22;71832;45.138;9.816;2023-12-20T01:23:38;2.80;98.60
82231;DHT22;71832;45.138;9.816;2023-12-20T01:26:07;2.80;97.90
82231;DHT22;71832;45.138;9.816;2023-12-20T01:28:35;2.70;97.50
82231;DHT22;71832;45.138;9.816;2023-12-20T01:31:02;2.70;97.30
82231;DHT22;71832;45.138;9.816;2023-12-20T01:33:30;2.50;97.10
82231;DHT22;71832;45.138;9.816;2023-12-20T01:35:57;2.50;97.30
82231;DHT22;71832;45.138;9.816;2023-12-20T01:38:25;2.50;97.90
82231;DHT22;71832;45.138;9.816;2023-12-20T01:40:53;2.50;98.70
82231;DHT22;71832;45.138;9.816;2023-12-20T01:43:21;2.60;99.20
82231;DHT22;71832;45.138;9.816;2023-12-20T01:45:50;2.60;98.80
82231;DHT22;71832;45.138;9.816;2023-12-20T01:48:18;2.60;97.80
82231;DHT22;71832;45.138;9.816;2023-12-20T01:50:48;2.60;97.70
82231;DHT22;71832;45.138;9.816;2023-12-20T01:53:16;2.60;97.40
82231;DHT22;71832;45.138;9.816;2023-12-20T01:55:46;2.50;97.60
82231;DHT22;71832;45.138;9.816;2023-12-20T01:58:16;2.50;97.60
82231;DHT22;71832;45.138;9.816;2023-12-20T02:00:45;2.40;97.80
82231;DHT22;71832;45.138;9.816;2023-12-20T02:03:14;2.50;97.90
82231;DHT22;71832;45.138;9.816;2023-12-20T02:05:43;2.50;98.00
82231;DHT22;71832;45.138;9.816;2023-12-20T02:08:13;2.60;98.40
82231;DHT22;71832;45.138;9.816;2023-12-20T02:10:41;2.70;98.50
82231;DHT22;71832;45.138;9.816;2023-12-20T02:13:10;2.80;98.40
82231;DHT22;71832;45.138;9.816;2023-12-20T02:15:39;2.80;98.10
82231;DHT22;71832;45.138;9.816;2023-12-20T02:18:09;2.90;97.60
82231;DHT22;71832;45.138;9.816;2023-12-20T02:20:37;2.90;97.00
82231;DHT22;71832;45.138;9.816;2023-12-20T02:23:05;2.80;96.20
82231;DHT22;71832;45.138;9.816;2023-12-20T02:25:34;2.80;94.50
82231;DHT22;71832;45.138;9.816;2023-12-20T02:28:03;2.70;94.50
82231;DHT22;71832;45.138;9.816;2023-12-20T02:30:31;2.50;94.20
82231;DHT22;71832;45.138;9.816;2023-12-20T02:33:02;2.50;93.50
82231;DHT22;71832;45.138;9.816;2023-12-20T02:49:00;2.10;97.60
82231;DHT22;71832;45.138;9.816;2023-12-20T02:51:29;2.20;98.00
82231;DHT22;71832;45.138;9.816;2023-12-20T02:53:58;2.20;98.10
82231;DHT22;71832;45.138;9.816;2023-12-20T02:56:26;2.30;97.80
82231;DHT22;71832;45.138;9.816;2023-12-20T02:58:56;2.30;97.90
82231;DHT22;71832;45.138;9.816;2023-12-20T03:01:25;2.30;98.20
82231;DHT22;71832;45.138;9.816;2023-12-20T03:03:53;2.30;98.20
82231;DHT22;71832;45.138;9.816;2023-12-20T03:06:22;2.30;98.30
82231;DHT22;71832;45.138;9.816;2023-12-20T03:08:51;2.30;98.20
82231;DHT22;71832;45.138;9.816;2023-12-20T03:11:19;2.30;98.40
82231;DHT22;71832;45.138;9.816;2023-12-20T03:13:48;2.30;98.40
82231;DHT22;71832;45.138;9.816;2023-12-20T03:16:16;2.40;98.30
82231;DHT22;71832;45.138;9.816;2023-12-20T03:18:48;2.40;98.30
82231;DHT22;71832;45.138;9.816;2023-12-20T03:21:17;2.50;98.00
82231;DHT22;71832;45.138;9.816;2023-12-20T03:23:46;2.50;97.30
82231;DHT22;71832;45.138;9.816;2023-12-20T03:26:14;2.50;98.00
82231;DHT22;71832;45.138;9.816;2023-12-20T03:28:44;2.50;98.00
82231;DHT22;71832;45.138;9.816;2023-12-20T03:31:13;2.50;98.10
82231;DHT22;71832;45.138;9.816;2023-12-20T03:33:41;2.50;97.70
82231;DHT22;71832;45.138;9.816;2023-12-20T03:36:10;2.50;97.60
82231;DHT22;71832;45.138;9.816;2023-12-20T03:38:39;2.50;97.40
82231;DHT22;71832;45.138;9.816;2023-12-20T03:41:08;2.50;97.70
82231;DHT22;71832;45.138;9.816;2023-12-20T03:43:36;2.50;97.90
82231;DHT22;71832;45.138;9.816;2023-12-20T03:46:05;2.50;97.60
82231;DHT22;71832;45.138;9.816;2023-12-20T03:48:35;2.40;97.60
82231;DHT22;71832;45.138;9.816;2023-12-20T03:51:04;2.40;97.30
82231;DHT22;71832;45.138;9.816;2023-12-20T03:53:33;2.40;97.30
82231;DHT22;71832;45.138;9.816;2023-12-20T03:56:01;2.50;96.80
82231;DHT22;71832;45.138;9.816;2023-12-20T03:58:29;2.40;95.90
82231;DHT22;71832;45.138;9.816;2023-12-20T04:00:57;2.40;95.90
82231;DHT22;71832;45.138;9.816;2023-12-20T04:03:26;2.40;96.40
82231;DHT22;71832;45.138;9.816;2023-12-20T04:05:55;2.40;96.60
82231;DHT22;71832;45.138;9.816;2023-12-20T04:08:24;2.40;96.90
82231;DHT22;71832;45.138;9.816;2023-12-20T04:10:53;2.40;97.20
82231;DHT22;71832;45.138;9.816;2023-12-20T04:13:21;2.40;97.10
82231;DHT22;71832;45.138;9.816;2023-12-20T04:15:49;2.40;97.30
82231;DHT22;71832;45.138;9.816;2023-12-20T04:18:18;2.50;97.50
82231;DHT22;71832;45.138;9.816;2023-12-20T04:20:47;2.50;97.60
82231;DHT22;71832;45.138;9.816;2023-12-20T04:23:16;2.50;96.90
82231;DHT22;71832;45.138;9.816;2023-12-20T04:25:45;2.50;96.50
82231;DHT22;71832;45.138;9.816;2023-12-20T04:28:14;2.50;96.20
82231;DHT22;71832;45.138;9.816;2023-12-20T04:30:43;2.50;96.10
82231;DHT22;71832;45.138;9.816;2023-12-20T04:33:12;2.50;96.40
82231;DHT22;71832;45.138;9.816;2023-12-20T04:35:40;2.50;96.90
82231;DHT22;71832;45.138;9.816;2023-12-20T04:38:10;2.50;97.10
82231;DHT22;71832;45.138;9.816;2023-12-20T04:40:39;2.50;97.30
82231;DHT22;71832;45.138;9.816;2023-12-20T04:43:08;2.50;97.20
82231;DHT22;71832;45.138;9.816;2023-12-20T04:45:37;2.50;96.30
82231;DHT22;71832;45.138;9.816;2023-12-20T04:48:06;2.50;95.90
82231;DHT22;71832;45.138;9.816;2023-12-20T04:50:34;2.40;95.80
82231;DHT22;71832;45.138;9.816;2023-12-20T04:53:03;2.40;96.20
82231;DHT22;71832;45.138;9.816;2023-12-20T04:55:32;2.40;96.70
82231;DHT22;71832;45.138;9.816;2023-12-20T04:58:01;2.40;96.90
82231;DHT22;71832;45.138;9.816;2023-12-20T05:00:29;2.40;97.20
82231;DHT22;71832;45.138;9.816;2023-12-20T05:02:58;2.30;95.60
82231;DHT22;71832;45.138;9.816;2023-12-20T05:05:26;2.30;95.70
82231;DHT22;71832;45.138;9.816;2023-12-20T05:07:54;2.20;96.20
82231;DHT22;71832;45.138;9.816;2023-12-20T05:10:23;2.20;96.50
82231;DHT22;71832;45.138;9.816;2023-12-20T05:12:51;2.20;96.40
82231;DHT22;71832;45.138;9.816;2023-12-20T05:15:20;2.20;96.20
82231;DHT22;71832;45.138;9.816;2023-12-20T05:17:49;2.20;95.90
82231;DHT22;71832;45.138;9.816;2023-12-20T05:20:18;2.20;95.70
82231;DHT22;71832;45.138;9.816;2023-12-20T05:22:46;2.20;95.70
82231;DHT22;71832;45.138;9.816;2023-12-20T05:25:15;2.20;96.10
82231;DHT22;71832;45.138;9.816;2023-12-20T05:27:43;2.30;96.80
82231;DHT22;71832;45.138;9.816;2023-12-20T05:30:12;2.30;97.40
82231;DHT22;71832;45.138;9.816;2023-12-20T05:32:48;2.30;98.00
82231;DHT22;71832;45.138;9.816;2023-12-20T05:35:16;2.40;98.50
82231;DHT22;71832;45.138;9.816;2023-12-20T05:37:47;2.40;99.00
82231;DHT22;71832;45.138;9.816;2023-12-20T05:40:14;2.40;98.80
82231;DHT22;71832;45.138;9.816;2023-12-20T05:42:42;2.50;98.70
82231;DHT22;71832;45.138;9.816;2023-12-20T05:45:10;2.40;98.70
82231;DHT22;71832;45.138;9.816;2023-12-20T05:47:38;2.50;98.50
82231;DHT22;71832;45.138;9.816;2023-12-20T05:50:06;2.50;98.50
82231;DHT22;71832;45.138;9.816;2023-12-20T05:52:34;2.50;98.30
82231;DHT22;71832;45.138;9.816;2023-12-20T05:55:02;2.50;98.40
82231;DHT22;71832;45.138;9.816;2023-12-20T05:57:30;2.50;98.40
82231;DHT22;71832;45.138;9.816;2023-12-20T05:59:58;2.50;98.60
82231;DHT22;71832;45.138;9.816;2023-12-20T06:02:27;2.50;98.70
82231;DHT22;71832;45.138;9.816;2023-12-20T06:04:56;2.60;98.60
82231;DHT22;71832;45.138;9.816;2023-12-20T06:07:24;2.60;98.50
82231;DHT22;71832;45.138;9.816;2023-12-20T06:09:51;2.60;98.30
82231;DHT22;71832;45.138;9.816;2023-12-20T06:12:19;2.50;98.50
82231;DHT22;71832;45.138;9.816;2023-12-20T06:14:46;2.60;98.40
82231;DHT22;71832;45.138;9.816;2023-12-20T06:17:14;2.60;97.80
82231;DHT22;71832;45.138;9.816;2023-12-20T06:19:41;2.50;97.00
82231;DHT22;71832;45.138;9.816;2023-12-20T06:22:12;2.50;96.40
82231;DHT22;71832;45.138;9.816;2023-12-20T06:24:40;2.40;96.20
82231;DHT22;71832;45.138;9.816;2023-12-20T06:27:07;2.40;96.60
82231;DHT22;71832;45.138;9.816;2023-12-20T06:29:35;2.30;97.20
82231;DHT22;71832;45.138;9.816;2023-12-20T06:32:02;2.30;97.60
82231;DHT22;71832;45.138;9.816;2023-12-20T06:34:30;2.30;97.90
82231;DHT22;71832;45.138;9.816;2023-12-20T06:36:57;2.30;98.00
82231;DHT22;71832;45.138;9.816;2023-12-20T06:39:25;2.40;97.80
82231;DHT22;71832;45.138;9.816;2023-12-20T06:41:53;2.40;97.50
82231;DHT22;71832;45.138;9.816;2023-12-20T06:44:20;2.40;97.30
82231;DHT22;71832;45.138;9.816;2023-12-20T06:46:48;2.50;97.40
82231;DHT22;71832;45.138;9.816;2023-12-20T06:49:17;2.50;97.50
82231;DHT22;71832;45.138;9.816;2023-12-20T06:51:45;2.50;97.30
82231;DHT22;71832;45.138;9.816;2023-12-20T06:54:13;2.50;97.30
82231;DHT22;71832;45.138;9.816;2023-12-20T06:56:42;2.50;97.80
82231;DHT22;71832;45.138;9.816;2023-12-20T06:59:11;2.50;98.00
82231;DHT22;71832;45.138;9.816;2023-12-20T07:01:39;2.50;98.20
82231;DHT22;71832;45.138;9.816;2023-12-20T07:04:07;2.50;98.40
82231;DHT22;71832;45.138;9.816;2023-12-20T07:06:35;2.50;98.60
82231;DHT22;71832;45.138;9.816;2023-12-20T07:09:04;2.50;98.00
82231;DHT22;71832;45.138;9.816;2023-12-20T07:11:33;2.50;98.10
82231;DHT22;71832;45.138;9.816;2023-12-20T07:14:01;2.50;98.10
82231;DHT22;71832;45.138;9.816;2023-12-20T07:16:29;2.50;97.80
82231;DHT22;71832;45.138;9.816;2023-12-20T07:18:57;2.60;97.20
82231;DHT22;71832;45.138;9.816;2023-12-20T07:21:25;2.60;97.00
82231;DHT22;71832;45.138;9.816;2023-12-20T07:23:53;2.50;97.70
82231;DHT22;71832;45.138;9.816;2023-12-20T07:26:21;2.50;97.90
82231;DHT22;71832;45.138;9.816;2023-12-20T07:28:50;2.40;98.50
82231;DHT22;71832;45.138;9.816;2023-12-20T07:31:18;2.40;99.00
82231;DHT22;71832;45.138;9.816;2023-12-20T07:33:46;2.40;99.50
82231;DHT22;71832;45.138;9.816;2023-12-20T07:36:14;2.30;99.70
82231;DHT22;71832;45.138;9.816;2023-12-20T07:38:41;2.40;99.90
82231;DHT22;71832;45.138;9.816;2023-12-20T07:41:11;2.40;99.80
82231;DHT22;71832;45.138;9.816;2023-12-20T07:43:38;2.50;99.70
82231;DHT22;71832;45.138;9.816;2023-12-20T07:46:08;2.50;99.70
82231;DHT22;71832;45.138;9.816;2023-12-20T07:48:37;2.50;99.60
82231;DHT22;71832;45.138;9.816;2023-12-20T07:51:05;2.60;99.80
82231;DHT22;71832;45.138;9.816;2023-12-20T07:53:34;2.60;99.70
82231;DHT22;71832;45.138;9.816;2023-12-20T07:56:02;2.70;99.10
82231;DHT22;71832;45.138;9.816;2023-12-20T07:58:40;2.80;98.70
82231;DHT22;71832;45.138;9.816;2023-12-20T08:01:09;2.90;98.50
82231;DHT22;71832;45.138;9.816;2023-12-20T08:03:37;2.90;98.30
82231;DHT22;71832;45.138;9.816;2023-12-20T08:06:06;2.90;98.40
82231;DHT22;71832;45.138;9.816;2023-12-20T08:08:34;2.90;98.20
82231;DHT22;71832;45.138;9.816;2023-12-20T08:11:03;2.90;98.30
82231;DHT22;71832;45.138;9.816;2023-12-20T08:13:32;3.00;98.70
82231;DHT22;71832;45.138;9.816;2023-12-20T08:16:00;3.00;98.80
82231;DHT22;71832;45.138;9.816;2023-12-20T08:18:30;3.00;98.90
82231;DHT22;71832;45.138;9.816;2023-12-20T08:20:58;3.00;99.30
82231;DHT22;71832;45.138;9.816;2023-12-20T08:23:27;3.00;99.70
82231;DHT22;71832;45.138;9.816;2023-12-20T08:25:55;3.00;99.90
82231;DHT22;71832;45.138;9.816;2023-12-20T08:28:24;3.10;99.90
82231;DHT22;71832;45.138;9.816;2023-12-20T08:30:53;3.10;99.90
82231;DHT22;71832;45.138;9.816;2023-12-20T08:33:21;3.10;99.90
82231;DHT22;71832;45.138;9.816;2023-12-20T08:35:50;3.10;99.90
82231;DHT22;71832;45.138;9.816;2023-12-20T08:38:19;3.20;99.90
82231;DHT22;71832;45.138;9.816;2023-12-20T08:40:47;3.30;99.90
82231;DHT22;71832;45.138;9.816;2023-12-20T08:43:16;3.30;99.70
82231;DHT22;71832;45.138;9.816;2023-12-20T08:45:44;3.30;99.50
82231;DHT22;71832;45.138;9.816;2023-12-20T08:48:13;3.40;99.70
82231;DHT22;71832;45.138;9.816;2023-12-20T08:50:41;3.50;99.70
82231;DHT22;71832;45.138;9.816;2023-12-20T08:53:10;3.50;99.90
82231;DHT22;71832;45.138;9.816;2023-12-20T08:55:38;3.50;99.90
82231;DHT22;71832;45.138;9.816;2023-12-20T08:58:05;3.50;99.80
82231;DHT22;71832;45.138;9.816;2023-12-20T09:00:34;3.60;99.90
82231;DHT22;71832;45.138;9.816;2023-12-20T09:03:02;3.60;99.90
82231;DHT22;71832;45.138;9.816;2023-12-20T09:05:30;3.60;99.90
82231;DHT22;71832;45.138;9.816;2023-12-20T09:07:58;3.70;99.90
82231;DHT22;71832;45.138;9.816;2023-12-20T09:10:26;3.70;99.90
82231;DHT22;71832;45.138;9.816;2023-12-20T09:12:54;3.70;99.90
82231;DHT22;71832;45.138;9.816;2023-12-20T09:15:24;3.80;99.80
82231;DHT22;71832;45.138;9.816;2023-12-20T09:17:52;3.90;99.50
82231;DHT22;71832;45.138;9.816;2023-12-20T09:20:20;3.90;99.60
82231;DHT22;71832;45.138;9.816;2023-12-20T09:22:50;3.90;99.50
82231;DHT22;71832;45.138;9.816;2023-12-20T09:25:18;3.90;99.70
82231;DHT22;71832;45.138;9.816;2023-12-20T09:27:49;3.90;99.50
82231;DHT22;71832;45.138;9.816;2023-12-20T09:30:18;4.00;99.30
82231;DHT22;71832;45.138;9.816;2023-12-20T09:32:46;4.00;99.30
82231;DHT22;71832;45.138;9.816;2023-12-20T09:35:14;4.00;99.70
82231;DHT22;71832;45.138;9.816;2023-12-20T09:37:41;4.00;99.90
82231;DHT22;71832;45.138;9.816;2023-12-20T09:40:13;4.10;99.50
82231;DHT22;71832;45.138;9.816;2023-12-20T09:42:51;4.10;99.00
82231;DHT22;71832;45.138;9.816;2023-12-20T09:45:23;4.20;98.40
82231;DHT22;71832;45.138;9.816;2023-12-20T09:47:53;4.20;98.40
82231;DHT22;71832;45.138;9.816;2023-12-20T09:50:22;4.20;98.20
82231;DHT22;71832;45.138;9.816;2023-12-20T09:52:52;4.20;98.30
82231;DHT22;71832;45.138;9.816;2023-12-20T09:55:21;4.30;98.50
82231;DHT22;71832;45.138;9.816;2023-12-20T09:57:49;4.30;98.30
82231;DHT22;71832;45.138;9.816;2023-12-20T10:00:17;4.40;98.20
82231;DHT22;71832;45.138;9.816;2023-12-20T10:03:04;4.50;98.20
82231;DHT22;71832;45.138;9.816;2023-12-20T10:05:34;4.50;98.20
82231;DHT22;71832;45.138;9.816;2023-12-20T10:08:03;4.50;97.70
82231;DHT22;71832;45.138;9.816;2023-12-20T10:10:31;4.60;97.70
82231;DHT22;71832;45.138;9.816;2023-12-20T10:13:11;4.70;98.00
82231;DHT22;71832;45.138;9.816;2023-12-20T10:15:40;4.70;97.80
82231;DHT22;71832;45.138;9.816;2023-12-20T10:18:09;4.70;97.70
82231;DHT22;71832;45.138;9.816;2023-12-20T10:20:39;4.70;97.40
82231;DHT22;71832;45.138;9.816;2023-12-20T10:23:08;4.80;97.50
82231;DHT22;71832;45.138;9.816;2023-12-20T10:25:36;4.90;97.30
82231;DHT22;71832;45.138;9.816;2023-12-20T10:28:23;4.90;97.10
82231;DHT22;71832;45.138;9.816;2023-12-20T10:30:55;4.90;97.00
82231;DHT22;71832;45.138;9.816;2023-12-20T10:33:26;5.00;96.90
82231;DHT22;71832;45.138;9.816;2023-12-20T10:35:56;5.00;96.80
82231;DHT22;71832;45.138;9.816;2023-12-20T10:38:23;5.00;96.70
82231;DHT22;71832;45.138;9.816;2023-12-20T10:40:54;5.10;96.20
82231;DHT22;71832;45.138;9.816;2023-12-20T10:43:22;5.10;95.60
82231;DHT22;71832;45.138;9.816;2023-12-20T10:45:50;5.20;96.10
82231;DHT22;71832;45.138;9.816;2023-12-20T10:48:19;5.30;96.60
82231;DHT22;71832;45.138;9.816;2023-12-20T10:50:48;5.30;96.20
82231;DHT22;71832;45.138;9.816;2023-12-20T10:53:16;5.30;95.60
82231;DHT22;71832;45.138;9.816;2023-12-20T10:55:44;5.30;95.40
82231;DHT22;71832;45.138;9.816;2023-12-20T10:58:14;5.50;95.60
82231;DHT22;71832;45.138;9.816;2023-12-20T11:00:41;5.50;96.10
82231;DHT22;71832;45.138;9.816;2023-12-20T11:03:13;5.50;96.10
82231;DHT22;71832;45.138;9.816;2023-12-20T11:05:49;5.60;96.20
82231;DHT22;71832;45.138;9.816;2023-12-20T11:11:12;5.70;96.40
82231;DHT22;71832;45.138;9.816;2023-12-20T11:14:07;5.70;96.90
82231;DHT22;71832;45.138;9.816;2023-12-20T11:16:37;5.80;97.00
82231;DHT22;71832;45.138;9.816;2023-12-20T11:19:06;5.80;96.90
82231;DHT22;71832;45.138;9.816;2023-12-20T11:21:35;5.90;96.90
82231;DHT22;71832;45.138;9.816;2023-12-20T11:24:04;5.90;97.00
82231;DHT22;71832;45.138;9.816;2023-12-20T11:26:33;5.90;97.00
82231;DHT22;71832;45.138;9.816;2023-12-20T11:32:01;6.00;96.40
82231;DHT22;71832;45.138;9.816;2023-12-20T11:34:34;6.00;96.50
82231;DHT22;71832;45.138;9.816;2023-12-20T11:37:04;6.00;96.50
82231;DHT22;71832;45.138;9.816;2023-12-20T11:39:32;6.10;96.80
82231;DHT22;71832;45.138;9.816;2023-12-20T11:42:05;6.10;96.90
82231;DHT22;71832;45.138;9.816;2023-12-20T11:44:34;6.10;96.20
82231;DHT22;71832;45.138;9.816;2023-12-20T11:47:04;6.10;96.60
82231;DHT22;71832;45.138;9.816;2023-12-20T11:49:32;6.10;97.20
82231;DHT22;71832;45.138;9.816;2023-12-20T11:52:00;6.10;97.80
82231;DHT22;71832;45.138;9.816;2023-12-20T11:54:31;6.20;97.50
82231;DHT22;71832;45.138;9.816;2023-12-20T11:56:59;6.20;97.00
82231;DHT22;71832;45.138;9.816;2023-12-20T11:59:28;6.20;96.70
82231;DHT22;71832;45.138;9.816;2023-12-20T12:01:58;6.20;96.20
82231;DHT22;71832;45.138;9.816;2023-12-20T12:04:27;6.30;96.20
82231;DHT22;71832;45.138;9.816;2023-12-20T12:06:55;6.30;96.00
82231;DHT22;71832;45.138;9.816;2023-12-20T12:09:22;6.40;96.80
82231;DHT22;71832;45.138;9.816;2023-12-20T12:11:50;6.50;97.20
82231;DHT22;71832;45.138;9.816;2023-12-20T12:14:17;6.50;97.20
82231;DHT22;71832;45.138;9.816;2023-12-20T12:16:46;6.60;97.30
82231;DHT22;71832;45.138;9.816;2023-12-20T12:19:23;6.60;97.20
82231;DHT22;71832;45.138;9.816;2023-12-20T12:22:12;6.70;96.10
82231;DHT22;71832;45.138;9.816;2023-12-20T12:24:41;6.70;95.80
82231;DHT22;71832;45.138;9.816;2023-12-20T12:27:11;6.80;95.40
82231;DHT22;71832;45.138;9.816;2023-12-20T12:29:40;6.90;94.60
82231;DHT22;71832;45.138;9.816;2023-12-20T12:32:09;7.00;94.50
82231;DHT22;71832;45.138;9.816;2023-12-20T12:34:37;7.00;94.30
82231;DHT22;71832;45.138;9.816;2023-12-20T12:37:04;7.00;93.80
82231;DHT22;71832;45.138;9.816;2023-12-20T12:39:32;7.10;93.80
82231;DHT22;71832;45.138;9.816;2023-12-20T12:41:59;7.00;92.60
82231;DHT22;71832;45.138;9.816;2023-12-20T12:44:27;7.00;92.70
82231;DHT22;71832;45.138;9.816;2023-12-20T12:46:54;6.90;93.40
82231;DHT22;71832;45.138;9.816;2023-12-20T12:49:23;6.90;93.70
82231;DHT22;71832;45.138;9.816;2023-12-20T12:51:50;7.00;94.00
82231;DHT22;71832;45.138;9.816;2023-12-20T12:54:18;7.00;94.80
82231;DHT22;71832;45.138;9.816;2023-12-20T12:56:45;7.00;95.30
82231;DHT22;71832;45.138;9.816;2023-12-20T12:59:14;7.00;95.40
82231;DHT22;71832;45.138;9.816;2023-12-20T13:01:41;7.10;95.40
82231;DHT22;71832;45.138;9.816;2023-12-20T13:04:09;7.10;95.40
82231;DHT22;71832;45.138;9.816;2023-12-20T13:06:37;7.20;95.40
82231;DHT22;71832;45.138;9.816;2023-12-20T13:09:05;7.20;95.40
82231;DHT22;71832;45.138;9.816;2023-12-20T13:11:33;7.20;95.30
82231;DHT22;71832;45.138;9.816;2023-12-20T13:14:02;7.30;94.80
82231;DHT22;71832;45.138;9.816;2023-12-20T13:16:31;7.40;95.00
82231;DHT22;71832;45.138;9.816;2023-12-20T13:19:01;7.40;94.90
82231;DHT22;71832;45.138;9.816;2023-12-20T13:21:29;7.40;94.50
82231;DHT22;71832;45.138;9.816;2023-12-20T13:23:57;7.40;94.60
82231;DHT22;71832;45.138;9.816;2023-12-20T13:26:25;7.40;94.70
82231;DHT22;71832;45.138;9.816;2023-12-20T13:28:54;7.30;95.00
82231;DHT22;71832;45.138;9.816;2023-12-20T13:31:23;7.30;95.20
82231;DHT22;71832;45.138;9.816;2023-12-20T13:33:51;7.20;95.20
82231;DHT22;71832;45.138;9.816;2023-12-20T13:36:19;7.20;95.30
82231;DHT22;71832;45.138;9.816;2023-12-20T13:38:46;7.20;95.70
82231;DHT22;71832;45.138;9.816;2023-12-20T13:41:14;7.20;95.90
82231;DHT22;71832;45.138;9.816;2023-12-20T13:43:42;7.20;95.80
82231;DHT22;71832;45.138;9.816;2023-12-20T13:46:10;7.10;95.80
82231;DHT22;71832;45.138;9.816;2023-12-20T13:48:39;7.00;95.70
82231;DHT22;71832;45.138;9.816;2023-12-20T13:51:07;7.00;95.80
82231;DHT22;71832;45.138;9.816;2023-12-20T13:53:34;7.00;95.90
82231;DHT22;71832;45.138;9.816;2023-12-20T13:56:03;6.90;96.00
82231;DHT22;71832;45.138;9.816;2023-12-20T13:58:31;6.90;96.00
82231;DHT22;71832;45.138;9.816;2023-12-20T14:01:00;6.80;96.40
82231;DHT22;71832;45.138;9.816;2023-12-20T14:03:28;6.80;96.50
82231;DHT22;71832;45.138;9.816;2023-12-20T14:05:57;6.80;96.80
82231;DHT22;71832;45.138;9.816;2023-12-20T14:08:25;6.70;97.00
82231;DHT22;71832;45.138;9.816;2023-12-20T14:10:53;6.70;97.10
82231;DHT22;71832;45.138;9.816;2023-12-20T14:13:21;6.70;97.20
82231;DHT22;71832;45.138;9.816;2023-12-20T14:15:48;6.70;97.00
82231;DHT22;71832;45.138;9.816;2023-12-20T14:18:16;6.70;96.90
82231;DHT22;71832;45.138;9.816;2023-12-20T14:20:45;6.70;96.90
82231;DHT22;71832;45.138;9.816;2023-12-20T14:23:14;6.70;97.40
82231;DHT22;71832;45.138;9.816;2023-12-20T14:25:43;6.70;97.90
82231;DHT22;71832;45.138;9.816;2023-12-20T14:28:12;6.70;99.00
82231;DHT22;71832;45.138;9.816;2023-12-20T14:30:41;6.70;98.70
82231;DHT22;71832;45.138;9.816;2023-12-20T14:33:09;6.80;98.80
82231;DHT22;71832;45.138;9.816;2023-12-20T14:35:37;6.80;98.80
82231;DHT22;71832;45.138;9.816;2023-12-20T14:38:05;6.80;98.60
82231;DHT22;71832;45.138;9.816;2023-12-20T14:40:33;6.80;98.30
82231;DHT22;71832;45.138;9.816;2023-12-20T14:43:00;6.80;98.20
82231;DHT22;71832;45.138;9.816;2023-12-20T14:45:31;6.80;98.10
82231;DHT22;71832;45.138;9.816;2023-12-20T14:47:59;6.80;99.00
82231;DHT22;71832;45.138;9.816;2023-12-20T14:50:27;6.80;99.30
82231;DHT22;71832;45.138;9.816;2023-12-20T14:52:55;6.70;99.30
82231;DHT22;71832;45.138;9.816;2023-12-20T14:55:23;6.70;99.40
82231;DHT22;71832;45.138;9.816;2023-12-20T14:57:54;6.70;99.40
82231;DHT22;71832;45.138;9.816;2023-12-20T15:00:21;6.70;99.10
82231;DHT22;71832;45.138;9.816;2023-12-20T15:02:49;6.70;99.00
82231;DHT22;71832;45.138;9.816;2023-12-20T15:05:16;6.70;98.90
82231;DHT22;71832;45.138;9.816;2023-12-20T15:07:44;6.70;98.60
82231;DHT22;71832;45.138;9.816;2023-12-20T15:10:14;6.70;98.50
82231;DHT22;71832;45.138;9.816;2023-12-20T15:12:44;6.70;98.20
82231;DHT22;71832;45.138;9.816;2023-12-20T15:15:12;6.70;97.80
82231;DHT22;71832;45.138;9.816;2023-12-20T15:17:43;6.70;97.80
82231;DHT22;71832;45.138;9.816;2023-12-20T15:20:10;6.70;97.90
82231;DHT22;71832;45.138;9.816;2023-12-20T15:22:39;6.70;97.70
82231;DHT22;71832;45.138;9.816;2023-12-20T15:25:08;6.70;97.90
82231;DHT22;71832;45.138;9.816;2023-12-20T15:27:36;6.60;97.60
82231;DHT22;71832;45.138;9.816;2023-12-20T15:30:06;6.60;97.60
82231;DHT22;71832;45.138;9.816;2023-12-20T15:32:36;6.60;97.50
82231;DHT22;71832;45.138;9.816;2023-12-20T15:35:05;6.60;97.50
82231;DHT22;71832;45.138;9.816;2023-12-20T15:37:33;6.50;97.60
82231;DHT22;71832;45.138;9.816;2023-12-20T15:40:01;6.50;97.70
82231;DHT22;71832;45.138;9.816;2023-12-20T15:42:29;6.50;97.30
82231;DHT22;71832;45.138;9.816;2023-12-20T15:44:59;6.40;97.20
82231;DHT22;71832;45.138;9.816;2023-12-20T15:47:26;6.40;97.60
82231;DHT22;71832;45.138;9.816;2023-12-20T15:49:54;6.30;97.60
82231;DHT22;71832;45.138;9.816;2023-12-20T15:52:21;6.30;97.80
82231;DHT22;71832;45.138;9.816;2023-12-20T15:54:49;6.20;97.90
82231;DHT22;71832;45.138;9.816;2023-12-20T15:57:16;6.20;97.80
82231;DHT22;71832;45.138;9.816;2023-12-20T15:59:44;6.20;97.20
82231;DHT22;71832;45.138;9.816;2023-12-20T16:02:12;6.10;97.50
82231;DHT22;71832;45.138;9.816;2023-12-20T16:04:40;6.00;97.90
82231;DHT22;71832;45.138;9.816;2023-12-20T16:07:07;6.00;98.10
82231;DHT22;71832;45.138;9.816;2023-12-20T16:09:35;5.90;98.40
82231;DHT22;71832;45.138;9.816;2023-12-20T16:12:03;5.90;98.40
82231;DHT22;71832;45.138;9.816;2023-12-20T16:14:30;5.90;98.60